createdAt,value
2023-02-03T07:54:36.066Z,46.30
2023-02-03T08:04:37.492Z,46.90
2023-02-03T08:14:38.940Z,46.90
2023-02-03T08:24:40.333Z,46.20
2023-02-03T08:34:41.722Z,45.80
2023-02-03T08:44:43.109Z,45.60
2023-02-03T08:54:45.466Z,45.50
2023-02-03T09:04:46.894Z,46.00
2023-02-03T09:14:48.303Z,46.00
2023-02-03T09:24:49.882Z,46.20
2023-02-03T09:34:51.261Z,46.30
2023-02-03T09:44:52.657Z,46.60
2023-02-03T09:54:54.102Z,46.20
2023-02-03T10:04:55.496Z,45.80
2023-02-03T10:14:56.873Z,45.60
2023-02-03T10:24:58.347Z,46.30
2023-02-03T10:34:59.747Z,46.20
2023-02-03T10:45:01.183Z,46.60
2023-02-03T10:55:02.575Z,46.50
2023-02-03T11:05:03.977Z,46.50
2023-02-03T11:15:05.387Z,46.30
2023-02-03T11:25:06.788Z,46.00
2023-02-03T11:35:08.189Z,46.20
2023-02-03T11:45:09.578Z,46.50
2023-02-03T11:55:10.982Z,46.80
2023-02-03T12:05:12.415Z,46.90
2023-02-03T12:15:13.824Z,46.70
2023-02-03T12:25:15.254Z,46.70
2023-02-03T12:35:16.660Z,46.90
2023-02-03T12:45:18.073Z,47.70
2023-02-03T12:55:19.493Z,46.70
2023-02-03T13:05:20.921Z,47.10
2023-02-03T13:15:22.321Z,47.20
2023-02-03T13:25:23.746Z,47.40
2023-02-03T13:35:33.975Z,47.20
2023-02-03T13:45:36.006Z,47.10
2023-02-03T13:55:37.423Z,47.20
2023-02-03T14:05:38.822Z,47.40
2023-02-03T14:15:40.221Z,47.30
2023-02-03T14:25:41.612Z,47.30
2023-02-03T14:35:44.160Z,47.70
2023-02-03T14:45:45.565Z,47.40
2023-02-03T14:55:46.961Z,47.10
2023-02-03T15:05:48.368Z,46.80
2023-02-03T15:15:49.806Z,46.50
2023-02-03T15:25:51.201Z,46.10
2023-02-03T15:35:52.584Z,47.20
2023-02-03T15:45:53.990Z,46.40
2023-02-03T15:55:55.386Z,46.30
2023-02-03T16:05:56.793Z,46.00
2023-02-03T16:15:58.225Z,45.80
2023-02-03T16:25:59.669Z,46.00
2023-02-03T16:36:01.084Z,45.10
2023-02-03T16:46:02.583Z,44.70
2023-02-03T16:56:04.048Z,44.60
2023-02-03T17:06:05.439Z,44.40
2023-02-03T17:16:06.870Z,43.80
2023-02-03T17:26:08.467Z,44.10
2023-02-03T17:36:09.878Z,44.50
2023-02-03T17:56:30.460Z,45.30
2023-02-03T18:06:31.827Z,45.60
2023-02-03T18:16:33.262Z,46.60
2023-02-03T18:26:34.737Z,47.00
2023-02-03T18:36:36.131Z,46.50
2023-02-03T18:46:37.570Z,46.80
2023-02-03T18:56:38.999Z,47.30
